sensor_id;sensor_type;location;lat;lon;timestamp;P1;durP1;ratioP1;P2;durP2;ratioP2
4577;SDS011;2301;47.354;8.528;2023-04-19T00:01:05;5.13;;;4.30;;
4577;SDS011;2301;47.354;8.528;2023-04-19T00:03:33;7.97;;;5.13;;
4577;SDS011;2301;47.354;8.528;2023-04-19T00:06:00;6.40;;;5.27;;
4577;SDS011;2301;47.354;8.528;2023-04-19T00:08:28;5.80;;;4.80;;
4577;SDS011;2301;47.354;8.528;2023-04-19T00:10:58;6.33;;;4.97;;
4577;SDS011;2301;47.354;8.528;2023-04-19T00:13:27;7.70;;;4.80;;
4577;SDS011;2301;47.354;8.528;2023-04-19T00:15:57;8.57;;;4.70;;
4577;SDS011;2301;47.354;8.528;2023-04-19T00:18:29;4.63;;;3.90;;
4577;SDS011;2301;47.354;8.528;2023-04-19T00:20:58;4.80;;;4.20;;
4577;SDS011;2301;47.354;8.528;2023-04-19T00:23:29;4.57;;;4.00;;
4577;SDS011;2301;47.354;8.528;2023-04-19T00:26:01;4.97;;;3.77;;
4577;SDS011;2301;47.354;8.528;2023-04-19T00:28:32;7.07;;;4.80;;
4577;SDS011;2301;47.354;8.528;2023-04-19T00:31:01;5.03;;;4.10;;
4577;SDS011;2301;47.354;8.528;2023-04-19T00:33:30;6.30;;;4.87;;
4577;SDS011;2301;47.354;8.528;2023-04-19T00:35:58;5.80;;;5.07;;
4577;SDS011;2301;47.354;8.528;2023-04-19T00:38:25;5.00;;;4.20;;
4577;SDS011;2301;47.354;8.528;2023-04-19T00:40:52;6.30;;;5.50;;
4577;SDS011;2301;47.354;8.528;2023-04-19T00:43:19;5.43;;;4.87;;
4577;SDS011;2301;47.354;8.528;2023-04-19T00:45:46;6.87;;;5.13;;
4577;SDS011;2301;47.354;8.528;2023-04-19T00:48:15;6.13;;;4.00;;
4577;SDS011;2301;47.354;8.528;2023-04-19T00:50:44;5.60;;;5.03;;
4577;SDS011;2301;47.354;8.528;2023-04-19T00:53:11;9.13;;;4.70;;
4577;SDS011;2301;47.354;8.528;2023-04-19T00:55:38;8.93;;;4.37;;
4577;SDS011;2301;47.354;8.528;2023-04-19T00:58:06;8.43;;;4.03;;
4577;SDS011;2301;47.354;8.528;2023-04-19T01:00:33;5.20;;;3.87;;
4577;SDS011;2301;47.354;8.528;2023-04-19T01:03:01;4.97;;;4.27;;
4577;SDS011;2301;47.354;8.528;2023-04-19T01:05:28;4.93;;;3.90;;
4577;SDS011;2301;47.354;8.528;2023-04-19T01:07:57;4.70;;;4.20;;
4577;SDS011;2301;47.354;8.528;2023-04-19T01:10:24;5.20;;;4.20;;
4577;SDS011;2301;47.354;8.528;2023-04-19T01:12:51;6.93;;;4.57;;
4577;SDS011;2301;47.354;8.528;2023-04-19T01:15:18;5.43;;;4.80;;
4577;SDS011;2301;47.354;8.528;2023-04-19T01:17:46;6.90;;;5.10;;
4577;SDS011;2301;47.354;8.528;2023-04-19T01:20:13;5.90;;;4.13;;
4577;SDS011;2301;47.354;8.528;2023-04-19T01:22:41;6.70;;;4.87;;
4577;SDS011;2301;47.354;8.528;2023-04-19T01:25:08;5.70;;;4.80;;
4577;SDS011;2301;47.354;8.528;2023-04-19T01:27:35;5.80;;;5.20;;
4577;SDS011;2301;47.354;8.528;2023-04-19T01:30:03;5.00;;;4.43;;
4577;SDS011;2301;47.354;8.528;2023-04-19T01:32:30;6.13;;;5.23;;
4577;SDS011;2301;47.354;8.528;2023-04-19T01:34:57;5.00;;;4.50;;
4577;SDS011;2301;47.354;8.528;2023-04-19T01:37:24;4.97;;;4.03;;
4577;SDS011;2301;47.354;8.528;2023-04-19T01:39:53;5.73;;;4.80;;
4577;SDS011;2301;47.354;8.528;2023-04-19T01:42:20;12.53;;;5.23;;
4577;SDS011;2301;47.354;8.528;2023-04-19T01:44:47;20.80;;;4.97;;
4577;SDS011;2301;47.354;8.528;2023-04-19T01:47:14;6.67;;;4.80;;
4577;SDS011;2301;47.354;8.528;2023-04-19T01:49:41;6.40;;;5.20;;
4577;SDS011;2301;47.354;8.528;2023-04-19T01:52:08;6.70;;;5.27;;
4577;SDS011;2301;47.354;8.528;2023-04-19T01:54:35;7.97;;;4.80;;
4577;SDS011;2301;47.354;8.528;2023-04-19T01:57:04;5.27;;;4.07;;
4577;SDS011;2301;47.354;8.528;2023-04-19T01:59:31;8.10;;;6.20;;
4577;SDS011;2301;47.354;8.528;2023-04-19T02:01:58;5.83;;;4.97;;
4577;SDS011;2301;47.354;8.528;2023-04-19T02:04:25;6.67;;;4.70;;
4577;SDS011;2301;47.354;8.528;2023-04-19T02:06:52;4.20;;;3.63;;
4577;SDS011;2301;47.354;8.528;2023-04-19T02:09:19;4.70;;;4.20;;
4577;SDS011;2301;47.354;8.528;2023-04-19T02:11:46;5.70;;;4.20;;
4577;SDS011;2301;47.354;8.528;2023-04-19T02:14:16;4.77;;;4.07;;
4577;SDS011;2301;47.354;8.528;2023-04-19T02:16:45;5.13;;;4.37;;
4577;SDS011;2301;47.354;8.528;2023-04-19T02:19:19;5.57;;;4.97;;
4577;SDS011;2301;47.354;8.528;2023-04-19T02:21:47;6.13;;;5.13;;
4577;SDS011;2301;47.354;8.528;2023-04-19T02:24:14;6.43;;;4.90;;
4577;SDS011;2301;47.354;8.528;2023-04-19T02:26:41;8.60;;;5.23;;
4577;SDS011;2301;47.354;8.528;2023-04-19T02:29:08;5.60;;;5.00;;
4577;SDS011;2301;47.354;8.528;2023-04-19T02:31:36;5.33;;;4.80;;
4577;SDS011;2301;47.354;8.528;2023-04-19T02:34:03;5.13;;;4.53;;
4577;SDS011;2301;47.354;8.528;2023-04-19T02:36:30;7.07;;;4.37;;
4577;SDS011;2301;47.354;8.528;2023-04-19T02:38:57;6.27;;;4.60;;
4577;SDS011;2301;47.354;8.528;2023-04-19T02:41:24;5.10;;;4.33;;
4577;SDS011;2301;47.354;8.528;2023-04-19T02:43:51;5.70;;;4.43;;
4577;SDS011;2301;47.354;8.528;2023-04-19T02:46:18;5.43;;;4.90;;
4577;SDS011;2301;47.354;8.528;2023-04-19T02:48:47;6.20;;;4.80;;
4577;SDS011;2301;47.354;8.528;2023-04-19T02:51:14;4.77;;;4.17;;
4577;SDS011;2301;47.354;8.528;2023-04-19T02:53:42;5.63;;;5.03;;
4577;SDS011;2301;47.354;8.528;2023-04-19T02:56:08;5.73;;;4.70;;
4577;SDS011;2301;47.354;8.528;2023-04-19T02:58:35;7.03;;;4.80;;
4577;SDS011;2301;47.354;8.528;2023-04-19T03:01:03;5.03;;;4.53;;
4577;SDS011;2301;47.354;8.528;2023-04-19T03:03:30;5.77;;;4.70;;
4577;SDS011;2301;47.354;8.528;2023-04-19T03:06:06;5.77;;;4.87;;
4577;SDS011;2301;47.354;8.528;2023-04-19T03:08:37;7.23;;;4.73;;
4577;SDS011;2301;47.354;8.528;2023-04-19T03:11:05;7.03;;;4.83;;
4577;SDS011;2301;47.354;8.528;2023-04-19T03:13:32;5.73;;;4.80;;
4577;SDS011;2301;47.354;8.528;2023-04-19T03:15:59;5.10;;;4.13;;
4577;SDS011;2301;47.354;8.528;2023-04-19T03:18:26;5.10;;;4.53;;
4577;SDS011;2301;47.354;8.528;2023-04-19T03:20:53;6.00;;;5.20;;
4577;SDS011;2301;47.354;8.528;2023-04-19T03:23:22;4.80;;;4.30;;
4577;SDS011;2301;47.354;8.528;2023-04-19T03:25:50;5.40;;;4.60;;
4577;SDS011;2301;47.354;8.528;2023-04-19T03:28:18;6.43;;;5.20;;
4577;SDS011;2301;47.354;8.528;2023-04-19T03:30:45;6.43;;;5.13;;
4577;SDS011;2301;47.354;8.528;2023-04-19T03:33:12;5.30;;;4.70;;
4577;SDS011;2301;47.354;8.528;2023-04-19T03:35:38;4.83;;;4.30;;
4577;SDS011;2301;47.354;8.528;2023-04-19T03:38:06;6.07;;;5.10;;
4577;SDS011;2301;47.354;8.528;2023-04-19T03:40:35;5.80;;;4.70;;
4577;SDS011;2301;47.354;8.528;2023-04-19T03:43:02;5.67;;;4.70;;
4577;SDS011;2301;47.354;8.528;2023-04-19T03:45:29;7.60;;;5.67;;
4577;SDS011;2301;47.354;8.528;2023-04-19T03:47:56;9.70;;;8.20;;
4577;SDS011;2301;47.354;8.528;2023-04-19T03:50:23;9.60;;;8.00;;
4577;SDS011;2301;47.354;8.528;2023-04-19T03:52:50;11.47;;;8.87;;
4577;SDS011;2301;47.354;8.528;2023-04-19T03:55:18;10.00;;;8.30;;
4577;SDS011;2301;47.354;8.528;2023-04-19T03:57:47;10.53;;;8.77;;
4577;SDS011;2301;47.354;8.528;2023-04-19T04:00:14;10.03;;;8.27;;
4577;SDS011;2301;47.354;8.528;2023-04-19T04:02:42;10.50;;;8.70;;
4577;SDS011;2301;47.354;8.528;2023-04-19T04:05:09;10.57;;;8.93;;
4577;SDS011;2301;47.354;8.528;2023-04-19T04:07:36;9.83;;;8.20;;
4577;SDS011;2301;47.354;8.528;2023-04-19T04:10:03;15.63;;;8.57;;
4577;SDS011;2301;47.354;8.528;2023-04-19T04:12:32;8.57;;;7.47;;
4577;SDS011;2301;47.354;8.528;2023-04-19T04:15:06;9.30;;;7.43;;
4577;SDS011;2301;47.354;8.528;2023-04-19T04:17:35;9.97;;;8.20;;
4577;SDS011;2301;47.354;8.528;2023-04-19T04:20:02;11.03;;;8.30;;
4577;SDS011;2301;47.354;8.528;2023-04-19T04:22:31;10.07;;;7.85;;
4577;SDS011;2301;47.354;8.528;2023-04-19T04:24:58;9.90;;;8.20;;
4577;SDS011;2301;47.354;8.528;2023-04-19T04:27:26;10.98;;;7.97;;
4577;SDS011;2301;47.354;8.528;2023-04-19T04:29:53;11.55;;;8.32;;
4577;SDS011;2301;47.354;8.528;2023-04-19T04:32:22;11.52;;;8.55;;
4577;SDS011;2301;47.354;8.528;2023-04-19T04:34:49;10.57;;;8.10;;
4577;SDS011;2301;47.354;8.528;2023-04-19T04:37:16;10.33;;;8.03;;
4577;SDS011;2301;47.354;8.528;2023-04-19T04:39:43;10.30;;;8.20;;
4577;SDS011;2301;47.354;8.528;2023-04-19T04:42:10;11.03;;;8.60;;
4577;SDS011;2301;47.354;8.528;2023-04-19T04:44:37;10.98;;;8.77;;
4577;SDS011;2301;47.354;8.528;2023-04-19T04:47:05;9.57;;;8.43;;
4577;SDS011;2301;47.354;8.528;2023-04-19T04:49:34;10.13;;;8.30;;
4577;SDS011;2301;47.354;8.528;2023-04-19T04:52:01;10.50;;;7.90;;
4577;SDS011;2301;47.354;8.528;2023-04-19T04:54:29;8.80;;;7.55;;
4577;SDS011;2301;47.354;8.528;2023-04-19T04:56:55;9.80;;;7.70;;
4577;SDS011;2301;47.354;8.528;2023-04-19T04:59:24;12.00;;;9.17;;
4577;SDS011;2301;47.354;8.528;2023-04-19T05:01:55;11.27;;;7.30;;
4577;SDS011;2301;47.354;8.528;2023-04-19T05:04:25;10.00;;;8.47;;
4577;SDS011;2301;47.354;8.528;2023-04-19T05:06:53;10.70;;;8.60;;
4577;SDS011;2301;47.354;8.528;2023-04-19T05:09:20;10.50;;;8.13;;
4577;SDS011;2301;47.354;8.528;2023-04-19T05:11:47;10.77;;;8.70;;
4577;SDS011;2301;47.354;8.528;2023-04-19T05:14:14;10.70;;;8.23;;
4577;SDS011;2301;47.354;8.528;2023-04-19T05:16:41;10.40;;;8.40;;
4577;SDS011;2301;47.354;8.528;2023-04-19T05:19:08;12.10;;;9.30;;
4577;SDS011;2301;47.354;8.528;2023-04-19T05:21:35;10.20;;;8.32;;
4577;SDS011;2301;47.354;8.528;2023-04-19T05:24:04;10.67;;;7.93;;
4577;SDS011;2301;47.354;8.528;2023-04-19T05:26:34;9.85;;;8.35;;
4577;SDS011;2301;47.354;8.528;2023-04-19T05:29:00;10.68;;;8.13;;
4577;SDS011;2301;47.354;8.528;2023-04-19T05:31:27;10.45;;;8.90;;
4577;SDS011;2301;47.354;8.528;2023-04-19T05:33:54;9.95;;;8.23;;
4577;SDS011;2301;47.354;8.528;2023-04-19T05:36:21;10.13;;;8.60;;
4577;SDS011;2301;47.354;8.528;2023-04-19T05:38:49;10.00;;;8.77;;
4577;SDS011;2301;47.354;8.528;2023-04-19T05:41:17;13.65;;;8.20;;
4577;SDS011;2301;47.354;8.528;2023-04-19T05:43:44;10.25;;;8.50;;
4577;SDS011;2301;47.354;8.528;2023-04-19T05:46:11;13.80;;;8.65;;
4577;SDS011;2301;47.354;8.528;2023-04-19T05:48:39;9.83;;;7.60;;
4577;SDS011;2301;47.354;8.528;2023-04-19T05:51:11;9.48;;;7.80;;
4577;SDS011;2301;47.354;8.528;2023-04-19T05:53:44;10.60;;;8.10;;
4577;SDS011;2301;47.354;8.528;2023-04-19T05:56:14;10.82;;;8.18;;
4577;SDS011;2301;47.354;8.528;2023-04-19T05:58:42;11.55;;;7.75;;
4577;SDS011;2301;47.354;8.528;2023-04-19T06:01:09;10.07;;;7.60;;
4577;SDS011;2301;47.354;8.528;2023-04-19T06:03:36;9.60;;;8.20;;
4577;SDS011;2301;47.354;8.528;2023-04-19T06:06:03;14.87;;;8.70;;
4577;SDS011;2301;47.354;8.528;2023-04-19T06:08:30;11.38;;;8.35;;
4577;SDS011;2301;47.354;8.528;2023-04-19T06:10:58;10.63;;;8.40;;
4577;SDS011;2301;47.354;8.528;2023-04-19T06:13:25;8.65;;;7.75;;
4577;SDS011;2301;47.354;8.528;2023-04-19T06:15:53;9.83;;;7.90;;
4577;SDS011;2301;47.354;8.528;2023-04-19T06:18:20;13.82;;;9.43;;
4577;SDS011;2301;47.354;8.528;2023-04-19T06:20:47;10.48;;;8.85;;
4577;SDS011;2301;47.354;8.528;2023-04-19T06:23:15;10.10;;;8.23;;
4577;SDS011;2301;47.354;8.528;2023-04-19T06:25:46;9.85;;;8.57;;
4577;SDS011;2301;47.354;8.528;2023-04-19T06:28:17;12.18;;;8.88;;
4577;SDS011;2301;47.354;8.528;2023-04-19T06:30:46;9.32;;;7.55;;
4577;SDS011;2301;47.354;8.528;2023-04-19T06:33:16;9.23;;;7.53;;
4577;SDS011;2301;47.354;8.528;2023-04-19T06:35:43;9.83;;;8.20;;
4577;SDS011;2301;47.354;8.528;2023-04-19T06:38:10;10.48;;;8.30;;
4577;SDS011;2301;47.354;8.528;2023-04-19T06:40:37;9.30;;;8.23;;
4577;SDS011;2301;47.354;8.528;2023-04-19T06:43:04;10.00;;;8.00;;
4577;SDS011;2301;47.354;8.528;2023-04-19T06:45:31;10.05;;;7.95;;
4577;SDS011;2301;47.354;8.528;2023-04-19T06:47:58;9.90;;;7.85;;
4577;SDS011;2301;47.354;8.528;2023-04-19T06:50:27;7.90;;;6.57;;
4577;SDS011;2301;47.354;8.528;2023-04-19T06:52:54;11.43;;;7.47;;
4577;SDS011;2301;47.354;8.528;2023-04-19T06:55:22;9.00;;;7.47;;
4577;SDS011;2301;47.354;8.528;2023-04-19T06:57:49;10.20;;;7.87;;
4577;SDS011;2301;47.354;8.528;2023-04-19T07:00:16;15.90;;;7.57;;
4577;SDS011;2301;47.354;8.528;2023-04-19T07:02:44;9.50;;;7.00;;
4577;SDS011;2301;47.354;8.528;2023-04-19T07:05:11;10.25;;;8.38;;
4577;SDS011;2301;47.354;8.528;2023-04-19T07:07:40;9.88;;;7.75;;
4577;SDS011;2301;47.354;8.528;2023-04-19T07:10:08;10.82;;;7.78;;
4577;SDS011;2301;47.354;8.528;2023-04-19T07:12:36;9.23;;;7.53;;
4577;SDS011;2301;47.354;8.528;2023-04-19T07:15:04;10.53;;;8.57;;
4577;SDS011;2301;47.354;8.528;2023-04-19T07:17:33;9.00;;;7.47;;
4577;SDS011;2301;47.354;8.528;2023-04-19T07:20:00;9.45;;;7.60;;
4577;SDS011;2301;47.354;8.528;2023-04-19T07:22:27;10.05;;;7.70;;
4577;SDS011;2301;47.354;8.528;2023-04-19T07:24:56;11.73;;;8.15;;
4577;SDS011;2301;47.354;8.528;2023-04-19T07:27:23;11.43;;;8.40;;
4577;SDS011;2301;47.354;8.528;2023-04-19T07:29:51;11.32;;;7.78;;
4577;SDS011;2301;47.354;8.528;2023-04-19T07:32:18;14.10;;;8.47;;
4577;SDS011;2301;47.354;8.528;2023-04-19T07:34:45;10.70;;;8.35;;
4577;SDS011;2301;47.354;8.528;2023-04-19T07:37:13;8.23;;;7.10;;
4577;SDS011;2301;47.354;8.528;2023-04-19T07:39:42;9.80;;;7.82;;
4577;SDS011;2301;47.354;8.528;2023-04-19T07:42:15;9.37;;;7.37;;
4577;SDS011;2301;47.354;8.528;2023-04-19T07:44:43;9.52;;;7.30;;
4577;SDS011;2301;47.354;8.528;2023-04-19T07:47:10;10.80;;;7.57;;
4577;SDS011;2301;47.354;8.528;2023-04-19T07:49:37;9.70;;;7.93;;
4577;SDS011;2301;47.354;8.528;2023-04-19T07:52:05;10.10;;;7.13;;
4577;SDS011;2301;47.354;8.528;2023-04-19T07:54:33;14.13;;;7.65;;
4577;SDS011;2301;47.354;8.528;2023-04-19T07:57:04;9.98;;;7.20;;
4577;SDS011;2301;47.354;8.528;2023-04-19T07:59:34;7.57;;;6.35;;
4577;SDS011;2301;47.354;8.528;2023-04-19T08:02:01;10.67;;;7.23;;
4577;SDS011;2301;47.354;8.528;2023-04-19T08:04:30;7.57;;;6.40;;
4577;SDS011;2301;47.354;8.528;2023-04-19T08:06:57;10.32;;;7.22;;
4577;SDS011;2301;47.354;8.528;2023-04-19T08:09:28;7.60;;;6.25;;
4577;SDS011;2301;47.354;8.528;2023-04-19T08:11:58;9.23;;;6.50;;
4577;SDS011;2301;47.354;8.528;2023-04-19T08:14:28;9.10;;;7.07;;
4577;SDS011;2301;47.354;8.528;2023-04-19T08:16:58;11.43;;;7.10;;
4577;SDS011;2301;47.354;8.528;2023-04-19T08:19:25;8.33;;;6.83;;
4577;SDS011;2301;47.354;8.528;2023-04-19T08:21:52;8.10;;;6.25;;
4577;SDS011;2301;47.354;8.528;2023-04-19T08:24:19;8.67;;;6.70;;
4577;SDS011;2301;47.354;8.528;2023-04-19T08:26:46;8.10;;;6.90;;
4577;SDS011;2301;47.354;8.528;2023-04-19T08:29:17;9.13;;;7.10;;
4577;SDS011;2301;47.354;8.528;2023-04-19T08:31:44;8.30;;;6.30;;
4577;SDS011;2301;47.354;8.528;2023-04-19T08:34:14;9.83;;;7.40;;
4577;SDS011;2301;47.354;8.528;2023-04-19T08:36:44;8.00;;;6.28;;
4577;SDS011;2301;47.354;8.528;2023-04-19T08:39:14;11.00;;;6.40;;
4577;SDS011;2301;47.354;8.528;2023-04-19T08:41:46;9.40;;;6.80;;
4577;SDS011;2301;47.354;8.528;2023-04-19T08:44:18;8.40;;;6.77;;
4577;SDS011;2301;47.354;8.528;2023-04-19T08:46:48;10.67;;;6.87;;
4577;SDS011;2301;47.354;8.528;2023-04-19T08:49:16;11.15;;;6.70;;
4577;SDS011;2301;47.354;8.528;2023-04-19T08:51:45;8.90;;;7.03;;
4577;SDS011;2301;47.354;8.528;2023-04-19T08:54:14;9.80;;;6.93;;
4577;SDS011;2301;47.354;8.528;2023-04-19T08:56:42;7.75;;;5.80;;
4577;SDS011;2301;47.354;8.528;2023-04-19T08:59:08;8.23;;;6.68;;
4577;SDS011;2301;47.354;8.528;2023-04-19T09:01:37;9.10;;;7.15;;
4577;SDS011;2301;47.354;8.528;2023-04-19T09:04:05;7.65;;;6.65;;
4577;SDS011;2301;47.354;8.528;2023-04-19T09:06:38;9.02;;;6.00;;
4577;SDS011;2301;47.354;8.528;2023-04-19T09:09:14;10.17;;;6.27;;
4577;SDS011;2301;47.354;8.528;2023-04-19T09:11:42;9.50;;;6.40;;
4577;SDS011;2301;47.354;8.528;2023-04-19T09:14:09;7.88;;;6.05;;
4577;SDS011;2301;47.354;8.528;2023-04-19T09:16:37;8.63;;;6.38;;
4577;SDS011;2301;47.354;8.528;2023-04-19T09:19:04;3.90;;;3.43;;
4577;SDS011;2301;47.354;8.528;2023-04-19T09:21:33;8.07;;;6.70;;
4577;SDS011;2301;47.354;8.528;2023-04-19T09:24:02;7.47;;;5.80;;
4577;SDS011;2301;47.354;8.528;2023-04-19T09:26:30;7.27;;;5.50;;
4577;SDS011;2301;47.354;8.528;2023-04-19T09:28:57;8.65;;;6.50;;
4577;SDS011;2301;47.354;8.528;2023-04-19T09:31:26;8.18;;;6.60;;
4577;SDS011;2301;47.354;8.528;2023-04-19T09:33:54;8.00;;;6.23;;
4577;SDS011;2301;47.354;8.528;2023-04-19T09:36:25;9.40;;;6.53;;
4577;SDS011;2301;47.354;8.528;2023-04-19T09:38:53;7.23;;;5.67;;
4577;SDS011;2301;47.354;8.528;2023-04-19T09:41:22;8.33;;;5.43;;
4577;SDS011;2301;47.354;8.528;2023-04-19T09:43:49;8.97;;;5.77;;
4577;SDS011;2301;47.354;8.528;2023-04-19T09:46:30;7.27;;;5.93;;
4577;SDS011;2301;47.354;8.528;2023-04-19T09:49:14;7.50;;;6.20;;
4577;SDS011;2301;47.354;8.528;2023-04-19T09:51:49;8.33;;;6.23;;
4577;SDS011;2301;47.354;8.528;2023-04-19T09:54:20;6.80;;;5.97;;
4577;SDS011;2301;47.354;8.528;2023-04-19T09:56:50;12.80;;;6.63;;
4577;SDS011;2301;47.354;8.528;2023-04-19T09:59:17;8.37;;;6.50;;
4577;SDS011;2301;47.354;8.528;2023-04-19T10:01:46;7.40;;;6.00;;
4577;SDS011;2301;47.354;8.528;2023-04-19T10:04:17;8.03;;;6.10;;
4577;SDS011;2301;47.354;8.528;2023-04-19T10:06:47;7.67;;;5.93;;
4577;SDS011;2301;47.354;8.528;2023-04-19T10:09:16;8.83;;;6.47;;
4577;SDS011;2301;47.354;8.528;2023-04-19T10:11:46;9.77;;;6.78;;
4577;SDS011;2301;47.354;8.528;2023-04-19T10:14:16;8.67;;;6.60;;
4577;SDS011;2301;47.354;8.528;2023-04-19T10:16:48;8.48;;;6.20;;
4577;SDS011;2301;47.354;8.528;2023-04-19T10:19:16;8.33;;;5.83;;
4577;SDS011;2301;47.354;8.528;2023-04-19T10:21:46;9.30;;;5.93;;
4577;SDS011;2301;47.354;8.528;2023-04-19T10:24:18;8.20;;;6.23;;
4577;SDS011;2301;47.354;8.528;2023-04-19T10:30:04;13.00;;;6.47;;
4577;SDS011;2301;47.354;8.528;2023-04-19T10:32:38;10.23;;;6.47;;
4577;SDS011;2301;47.354;8.528;2023-04-19T10:35:09;8.27;;;5.60;;
4577;SDS011;2301;47.354;8.528;2023-04-19T10:37:44;7.83;;;5.87;;
4577;SDS011;2301;47.354;8.528;2023-04-19T10:43:21;9.30;;;5.97;;
4577;SDS011;2301;47.354;8.528;2023-04-19T10:45:50;7.77;;;6.57;;
4577;SDS011;2301;47.354;8.528;2023-04-19T10:51:05;6.73;;;5.33;;
4577;SDS011;2301;47.354;8.528;2023-04-19T10:53:42;7.60;;;5.93;;
4577;SDS011;2301;47.354;8.528;2023-04-19T10:56:10;10.07;;;6.13;;
4577;SDS011;2301;47.354;8.528;2023-04-19T11:02:00;10.93;;;6.28;;
4577;SDS011;2301;47.354;8.528;2023-04-19T11:07:27;6.80;;;5.40;;
4577;SDS011;2301;47.354;8.528;2023-04-19T11:09:54;8.20;;;7.03;;
4577;SDS011;2301;47.354;8.528;2023-04-19T11:12:20;7.80;;;5.93;;
4577;SDS011;2301;47.354;8.528;2023-04-19T11:14:50;7.30;;;5.78;;
4577;SDS011;2301;47.354;8.528;2023-04-19T11:17:19;6.87;;;5.80;;
4577;SDS011;2301;47.354;8.528;2023-04-19T11:19:53;7.80;;;6.30;;
4577;SDS011;2301;47.354;8.528;2023-04-19T11:22:25;6.73;;;5.70;;
4577;SDS011;2301;47.354;8.528;2023-04-19T11:25:03;8.00;;;5.40;;
4577;SDS011;2301;47.354;8.528;2023-04-19T11:27:31;7.73;;;6.17;;
4577;SDS011;2301;47.354;8.528;2023-04-19T11:30:00;6.88;;;5.95;;
4577;SDS011;2301;47.354;8.528;2023-04-19T11:32:31;7.13;;;6.20;;
4577;SDS011;2301;47.354;8.528;2023-04-19T11:35:02;5.65;;;5.10;;
4577;SDS011;2301;47.354;8.528;2023-04-19T11:37:32;7.45;;;6.07;;
4577;SDS011;2301;47.354;8.528;2023-04-19T11:39:59;6.40;;;5.40;;
4577;SDS011;2301;47.354;8.528;2023-04-19T11:42:27;7.03;;;5.53;;
4577;SDS011;2301;47.354;8.528;2023-04-19T11:44:54;7.07;;;5.73;;
4577;SDS011;2301;47.354;8.528;2023-04-19T11:47:22;5.60;;;4.83;;
4577;SDS011;2301;47.354;8.528;2023-04-19T11:49:53;7.35;;;5.90;;
4577;SDS011;2301;47.354;8.528;2023-04-19T11:52:22;7.50;;;5.50;;
4577;SDS011;2301;47.354;8.528;2023-04-19T11:54:50;7.57;;;5.63;;
4577;SDS011;2301;47.354;8.528;2023-04-19T11:57:27;6.90;;;5.53;;
4577;SDS011;2301;47.354;8.528;2023-04-19T12:00:01;7.77;;;5.97;;
4577;SDS011;2301;47.354;8.528;2023-04-19T12:02:35;8.00;;;5.97;;
4577;SDS011;2301;47.354;8.528;2023-04-19T12:05:09;6.70;;;5.77;;
4577;SDS011;2301;47.354;8.528;2023-04-19T12:10:23;5.70;;;4.63;;
4577;SDS011;2301;47.354;8.528;2023-04-19T12:12:54;7.30;;;5.30;;
4577;SDS011;2301;47.354;8.528;2023-04-19T12:15:23;6.37;;;4.80;;
4577;SDS011;2301;47.354;8.528;2023-04-19T12:18:06;6.20;;;5.20;;
4577;SDS011;2301;47.354;8.528;2023-04-19T12:20:36;5.77;;;5.00;;
4577;SDS011;2301;47.354;8.528;2023-04-19T12:23:05;6.80;;;5.57;;
4577;SDS011;2301;47.354;8.528;2023-04-19T12:25:35;5.80;;;5.00;;
4577;SDS011;2301;47.354;8.528;2023-04-19T12:28:05;8.23;;;5.30;;
4577;SDS011;2301;47.354;8.528;2023-04-19T12:30:32;7.43;;;5.70;;
4577;SDS011;2301;47.354;8.528;2023-04-19T12:33:01;6.93;;;5.50;;
4577;SDS011;2301;47.354;8.528;2023-04-19T12:35:28;8.50;;;5.93;;
4577;SDS011;2301;47.354;8.528;2023-04-19T12:37:57;10.73;;;6.10;;
4577;SDS011;2301;47.354;8.528;2023-04-19T12:40:24;7.67;;;5.70;;
4577;SDS011;2301;47.354;8.528;2023-04-19T12:42:52;7.83;;;6.00;;
4577;SDS011;2301;47.354;8.528;2023-04-19T12:45:19;9.03;;;5.63;;
4577;SDS011;2301;47.354;8.528;2023-04-19T12:47:47;9.13;;;5.67;;
4577;SDS011;2301;47.354;8.528;2023-04-19T12:50:14;7.97;;;5.60;;
4577;SDS011;2301;47.354;8.528;2023-04-19T12:52:41;7.13;;;5.17;;
4577;SDS011;2301;47.354;8.528;2023-04-19T12:55:11;5.80;;;5.13;;
4577;SDS011;2301;47.354;8.528;2023-04-19T12:57:38;6.80;;;5.33;;
4577;SDS011;2301;47.354;8.528;2023-04-19T13:00:06;7.27;;;5.83;;
4577;SDS011;2301;47.354;8.528;2023-04-19T13:02:35;5.87;;;4.93;;
4577;SDS011;2301;47.354;8.528;2023-04-19T13:05:02;7.57;;;5.47;;
4577;SDS011;2301;47.354;8.528;2023-04-19T13:07:30;7.50;;;5.53;;
4577;SDS011;2301;47.354;8.528;2023-04-19T13:09:57;8.70;;;6.80;;
4577;SDS011;2301;47.354;8.528;2023-04-19T13:12:26;7.90;;;6.63;;
4577;SDS011;2301;47.354;8.528;2023-04-19T13:14:53;7.77;;;6.40;;
4577;SDS011;2301;47.354;8.528;2023-04-19T13:17:20;8.33;;;7.10;;
4577;SDS011;2301;47.354;8.528;2023-04-19T13:19:48;9.60;;;7.30;;
4577;SDS011;2301;47.354;8.528;2023-04-19T13:22:15;9.60;;;6.87;;
4577;SDS011;2301;47.354;8.528;2023-04-19T13:24:42;7.20;;;6.23;;
4577;SDS011;2301;47.354;8.528;2023-04-19T13:27:10;9.80;;;5.87;;
4577;SDS011;2301;47.354;8.528;2023-04-19T13:29:38;9.50;;;6.00;;
4577;SDS011;2301;47.354;8.528;2023-04-19T13:32:05;10.07;;;7.00;;
4577;SDS011;2301;47.354;8.528;2023-04-19T13:34:36;8.13;;;6.77;;
4577;SDS011;2301;47.354;8.528;2023-04-19T13:37:03;8.63;;;6.50;;
4577;SDS011;2301;47.354;8.528;2023-04-19T13:39:30;8.87;;;6.97;;
4577;SDS011;2301;47.354;8.528;2023-04-19T13:41:57;9.83;;;6.80;;
4577;SDS011;2301;47.354;8.528;2023-04-19T13:44:26;9.90;;;7.40;;
4577;SDS011;2301;47.354;8.528;2023-04-19T13:46:54;8.60;;;6.53;;
4577;SDS011;2301;47.354;8.528;2023-04-19T13:49:21;9.37;;;6.90;;
4577;SDS011;2301;47.354;8.528;2023-04-19T13:51:48;11.20;;;7.80;;
4577;SDS011;2301;47.354;8.528;2023-04-19T13:54:15;11.60;;;7.53;;
4577;SDS011;2301;47.354;8.528;2023-04-19T13:56:43;11.43;;;7.10;;
4577;SDS011;2301;47.354;8.528;2023-04-19T13:59:09;9.90;;;7.37;;
4577;SDS011;2301;47.354;8.528;2023-04-19T14:01:36;9.50;;;7.40;;
4577;SDS011;2301;47.354;8.528;2023-04-19T14:04:05;10.17;;;7.20;;
4577;SDS011;2301;47.354;8.528;2023-04-19T14:06:32;8.73;;;6.80;;
4577;SDS011;2301;47.354;8.528;2023-04-19T14:08:59;8.90;;;7.70;;
4577;SDS011;2301;47.354;8.528;2023-04-19T14:11:26;8.23;;;7.17;;
4577;SDS011;2301;47.354;8.528;2023-04-19T14:13:54;8.07;;;6.20;;
4577;SDS011;2301;47.354;8.528;2023-04-19T14:16:21;9.70;;;6.30;;
4577;SDS011;2301;47.354;8.528;2023-04-19T14:18:49;8.70;;;6.57;;
4577;SDS011;2301;47.354;8.528;2023-04-19T14:21:17;6.83;;;6.13;;
4577;SDS011;2301;47.354;8.528;2023-04-19T14:23:44;14.93;;;7.00;;
4577;SDS011;2301;47.354;8.528;2023-04-19T14:26:12;8.40;;;6.93;;
4577;SDS011;2301;47.354;8.528;2023-04-19T14:28:39;8.30;;;6.50;;
4577;SDS011;2301;47.354;8.528;2023-04-19T14:31:06;8.20;;;6.67;;
4577;SDS011;2301;47.354;8.528;2023-04-19T14:33:33;12.97;;;6.30;;
4577;SDS011;2301;47.354;8.528;2023-04-19T14:36:00;8.57;;;6.70;;
4577;SDS011;2301;47.354;8.528;2023-04-19T14:38:29;8.20;;;6.20;;
4577;SDS011;2301;47.354;8.528;2023-04-19T14:40:56;6.97;;;5.77;;
4577;SDS011;2301;47.354;8.528;2023-04-19T14:43:23;6.97;;;6.27;;
4577;SDS011;2301;47.354;8.528;2023-04-19T14:45:53;9.33;;;5.47;;
4577;SDS011;2301;47.354;8.528;2023-04-19T14:48:24;8.40;;;6.10;;
4577;SDS011;2301;47.354;8.528;2023-04-19T14:50:51;7.90;;;5.63;;
4577;SDS011;2301;47.354;8.528;2023-04-19T14:53:18;5.67;;;5.00;;
4577;SDS011;2301;47.354;8.528;2023-04-19T14:55:50;5.80;;;4.73;;
4577;SDS011;2301;47.354;8.528;2023-04-19T14:58:20;6.70;;;4.70;;
4577;SDS011;2301;47.354;8.528;2023-04-19T15:00:51;5.37;;;4.67;;
4577;SDS011;2301;47.354;8.528;2023-04-19T15:03:18;6.63;;;4.90;;
4577;SDS011;2301;47.354;8.528;2023-04-19T15:05:46;5.20;;;4.50;;
4577;SDS011;2301;47.354;8.528;2023-04-19T15:08:12;6.10;;;5.10;;
4577;SDS011;2301;47.354;8.528;2023-04-19T15:10:39;10.93;;;5.70;;
4577;SDS011;2301;47.354;8.528;2023-04-19T15:13:08;6.10;;;5.00;;
4577;SDS011;2301;47.354;8.528;2023-04-19T15:15:35;4.93;;;4.13;;
4577;SDS011;2301;47.354;8.528;2023-04-19T15:18:02;10.10;;;4.93;;
4577;SDS011;2301;47.354;8.528;2023-04-19T15:20:29;6.03;;;4.93;;
4577;SDS011;2301;47.354;8.528;2023-04-19T15:22:56;5.47;;;4.40;;
4577;SDS011;2301;47.354;8.528;2023-04-19T15:25:23;6.50;;;4.83;;
4577;SDS011;2301;47.354;8.528;2023-04-19T15:27:51;6.50;;;4.30;;
4577;SDS011;2301;47.354;8.528;2023-04-19T15:30:19;5.33;;;4.40;;
4577;SDS011;2301;47.354;8.528;2023-04-19T15:32:46;5.70;;;4.90;;
4577;SDS011;2301;47.354;8.528;2023-04-19T15:35:13;6.40;;;4.87;;
4577;SDS011;2301;47.354;8.528;2023-04-19T15:37:40;5.40;;;4.50;;